sensor_id;sensor_type;location;lat;lon;timestamp;temperature;humidity
4602;DHT22;2313;48.552;9.370;2023-12-20T00:02:16;7.20;99.90
4602;DHT22;2313;48.552;9.370;2023-12-20T00:04:42;7.20;99.90
4602;DHT22;2313;48.552;9.370;2023-12-20T00:07:07;7.30;99.90
4602;DHT22;2313;48.552;9.370;2023-12-20T00:09:33;7.30;99.90
4602;DHT22;2313;48.552;9.370;2023-12-20T00:11:58;7.30;99.90
4602;DHT22;2313;48.552;9.370;2023-12-20T00:14:24;7.30;99.90
4602;DHT22;2313;48.552;9.370;2023-12-20T00:16:50;7.30;99.90
4602;DHT22;2313;48.552;9.370;2023-12-20T00:19:15;7.30;99.90
4602;DHT22;2313;48.552;9.370;2023-12-20T00:21:41;7.30;99.90
4602;DHT22;2313;48.552;9.370;2023-12-20T00:24:07;7.30;99.90
4602;DHT22;2313;48.552;9.370;2023-12-20T00:26:33;7.30;99.90
4602;DHT22;2313;48.552;9.370;2023-12-20T00:28:58;7.30;99.90
4602;DHT22;2313;48.552;9.370;2023-12-20T00:31:24;7.30;99.90
4602;DHT22;2313;48.552;9.370;2023-12-20T00:33:49;7.30;99.90
4602;DHT22;2313;48.552;9.370;2023-12-20T00:36:15;7.40;99.90
4602;DHT22;2313;48.552;9.370;2023-12-20T00:38:41;7.30;99.90
4602;DHT22;2313;48.552;9.370;2023-12-20T00:41:06;7.40;99.90
4602;DHT22;2313;48.552;9.370;2023-12-20T00:43:32;7.40;99.90
4602;DHT22;2313;48.552;9.370;2023-12-20T00:45:57;7.40;99.90
4602;DHT22;2313;48.552;9.370;2023-12-20T00:48:25;7.40;99.90
4602;DHT22;2313;48.552;9.370;2023-12-20T00:50:52;7.40;99.90
4602;DHT22;2313;48.552;9.370;2023-12-20T00:53:18;7.30;99.90
4602;DHT22;2313;48.552;9.370;2023-12-20T00:55:44;7.40;99.90
4602;DHT22;2313;48.552;9.370;2023-12-20T00:58:10;7.40;99.90
4602;DHT22;2313;48.552;9.370;2023-12-20T01:00:35;7.50;99.90
4602;DHT22;2313;48.552;9.370;2023-12-20T01:03:01;7.50;99.90
4602;DHT22;2313;48.552;9.370;2023-12-20T01:05:27;7.50;99.90
4602;DHT22;2313;48.552;9.370;2023-12-20T01:07:52;7.60;99.90
4602;DHT22;2313;48.552;9.370;2023-12-20T01:10:18;7.60;99.90
4602;DHT22;2313;48.552;9.370;2023-12-20T01:12:44;7.60;99.90
4602;DHT22;2313;48.552;9.370;2023-12-20T01:15:10;7.60;99.90
4602;DHT22;2313;48.552;9.370;2023-12-20T01:17:35;7.60;99.90
4602;DHT22;2313;48.552;9.370;2023-12-20T01:20:01;7.60;99.90
4602;DHT22;2313;48.552;9.370;2023-12-20T01:22:27;7.60;99.90
4602;DHT22;2313;48.552;9.370;2023-12-20T01:24:52;7.60;99.90
4602;DHT22;2313;48.552;9.370;2023-12-20T01:27:18;7.60;99.90
4602;DHT22;2313;48.552;9.370;2023-12-20T01:29:44;7.60;99.90
4602;DHT22;2313;48.552;9.370;2023-12-20T01:32:09;7.50;99.90
4602;DHT22;2313;48.552;9.370;2023-12-20T01:34:35;7.30;99.90
4602;DHT22;2313;48.552;9.370;2023-12-20T01:37:01;7.30;99.90
4602;DHT22;2313;48.552;9.370;2023-12-20T01:39:27;7.20;99.90
4602;DHT22;2313;48.552;9.370;2023-12-20T01:41:53;7.10;99.90
4602;DHT22;2313;48.552;9.370;2023-12-20T01:44:19;7.00;99.90
4602;DHT22;2313;48.552;9.370;2023-12-20T01:46:45;6.90;99.90
4602;DHT22;2313;48.552;9.370;2023-12-20T01:49:12;6.90;99.90
4602;DHT22;2313;48.552;9.370;2023-12-20T01:51:37;6.80;99.90
4602;DHT22;2313;48.552;9.370;2023-12-20T01:54:03;6.80;99.90
4602;DHT22;2313;48.552;9.370;2023-12-20T01:56:31;6.80;99.90
4602;DHT22;2313;48.552;9.370;2023-12-20T01:58:57;6.70;99.90
4602;DHT22;2313;48.552;9.370;2023-12-20T02:01:23;6.70;99.90
4602;DHT22;2313;48.552;9.370;2023-12-20T02:03:50;6.60;99.90
4602;DHT22;2313;48.552;9.370;2023-12-20T02:06:17;6.50;99.90
4602;DHT22;2313;48.552;9.370;2023-12-20T02:08:43;6.50;99.90
4602;DHT22;2313;48.552;9.370;2023-12-20T02:11:10;6.30;99.90
4602;DHT22;2313;48.552;9.370;2023-12-20T02:13:35;6.40;99.90
4602;DHT22;2313;48.552;9.370;2023-12-20T02:16:01;6.30;99.90
4602;DHT22;2313;48.552;9.370;2023-12-20T02:18:27;6.10;99.90
4602;DHT22;2313;48.552;9.370;2023-12-20T02:20:52;6.10;99.90
4602;DHT22;2313;48.552;9.370;2023-12-20T02:23:18;6.10;99.90
4602;DHT22;2313;48.552;9.370;2023-12-20T02:25:44;6.00;99.90
4602;DHT22;2313;48.552;9.370;2023-12-20T02:28:10;5.90;99.90
4602;DHT22;2313;48.552;9.370;2023-12-20T02:30:35;5.90;99.90
4602;DHT22;2313;48.552;9.370;2023-12-20T02:33:01;5.90;99.90
4602;DHT22;2313;48.552;9.370;2023-12-20T02:35:29;5.80;99.90
4602;DHT22;2313;48.552;9.370;2023-12-20T02:37:54;5.90;99.90
4602;DHT22;2313;48.552;9.370;2023-12-20T02:40:20;5.80;99.90
4602;DHT22;2313;48.552;9.370;2023-12-20T02:42:45;5.80;99.90
4602;DHT22;2313;48.552;9.370;2023-12-20T02:45:11;5.80;99.90
4602;DHT22;2313;48.552;9.370;2023-12-20T02:47:36;5.80;99.90
4602;DHT22;2313;48.552;9.370;2023-12-20T02:50:02;5.80;99.90
4602;DHT22;2313;48.552;9.370;2023-12-20T02:52:29;5.90;99.90
4602;DHT22;2313;48.552;9.370;2023-12-20T02:54:54;5.90;99.90
4602;DHT22;2313;48.552;9.370;2023-12-20T02:57:20;5.80;99.90
4602;DHT22;2313;48.552;9.370;2023-12-20T02:59:45;5.90;99.90
4602;DHT22;2313;48.552;9.370;2023-12-20T03:02:11;5.80;99.90
4602;DHT22;2313;48.552;9.370;2023-12-20T03:04:37;5.90;99.90
4602;DHT22;2313;48.552;9.370;2023-12-20T03:07:02;5.90;99.90
4602;DHT22;2313;48.552;9.370;2023-12-20T03:09:28;5.90;99.90
4602;DHT22;2313;48.552;9.370;2023-12-20T03:11:53;5.90;99.90
4602;DHT22;2313;48.552;9.370;2023-12-20T03:14:19;5.90;99.90
4602;DHT22;2313;48.552;9.370;2023-12-20T03:16:50;5.90;99.90
4602;DHT22;2313;48.552;9.370;2023-12-20T03:19:18;5.90;99.90
4602;DHT22;2313;48.552;9.370;2023-12-20T03:21:44;5.90;99.90
4602;DHT22;2313;48.552;9.370;2023-12-20T03:24:09;5.90;99.90
4602;DHT22;2313;48.552;9.370;2023-12-20T03:26:35;5.90;99.90
4602;DHT22;2313;48.552;9.370;2023-12-20T03:29:00;5.80;99.90
4602;DHT22;2313;48.552;9.370;2023-12-20T03:31:26;5.80;99.90
4602;DHT22;2313;48.552;9.370;2023-12-20T03:33:52;5.90;99.90
4602;DHT22;2313;48.552;9.370;2023-12-20T03:36:19;5.90;99.90
4602;DHT22;2313;48.552;9.370;2023-12-20T03:38:45;5.90;99.90
4602;DHT22;2313;48.552;9.370;2023-12-20T03:41:11;5.90;99.90
4602;DHT22;2313;48.552;9.370;2023-12-20T03:43:37;5.90;99.90
4602;DHT22;2313;48.552;9.370;2023-12-20T03:46:03;5.80;99.90
4602;DHT22;2313;48.552;9.370;2023-12-20T03:48:30;5.90;99.90
4602;DHT22;2313;48.552;9.370;2023-12-20T03:50:56;5.80;99.90
4602;DHT22;2313;48.552;9.370;2023-12-20T03:53:22;5.80;99.90
4602;DHT22;2313;48.552;9.370;2023-12-20T03:55:48;5.80;99.90
4602;DHT22;2313;48.552;9.370;2023-12-20T03:58:13;5.80;99.90
4602;DHT22;2313;48.552;9.370;2023-12-20T04:00:39;5.80;99.90
4602;DHT22;2313;48.552;9.370;2023-12-20T04:03:04;5.80;99.90
4602;DHT22;2313;48.552;9.370;2023-12-20T04:05:30;5.70;99.90
4602;DHT22;2313;48.552;9.370;2023-12-20T04:07:56;5.70;99.90
4602;DHT22;2313;48.552;9.370;2023-12-20T04:10:21;5.70;99.90
4602;DHT22;2313;48.552;9.370;2023-12-20T04:12:47;5.70;99.90
4602;DHT22;2313;48.552;9.370;2023-12-20T04:15:12;5.60;99.90
4602;DHT22;2313;48.552;9.370;2023-12-20T04:17:38;5.60;99.90
4602;DHT22;2313;48.552;9.370;2023-12-20T04:20:04;5.60;99.90
4602;DHT22;2313;48.552;9.370;2023-12-20T04:22:30;5.60;99.90
4602;DHT22;2313;48.552;9.370;2023-12-20T04:24:56;5.70;99.90
4602;DHT22;2313;48.552;9.370;2023-12-20T04:27:21;5.70;99.90
4602;DHT22;2313;48.552;9.370;2023-12-20T04:29:47;5.60;99.90
4602;DHT22;2313;48.552;9.370;2023-12-20T04:32:12;5.60;99.90
4602;DHT22;2313;48.552;9.370;2023-12-20T04:34:38;5.60;99.90
4602;DHT22;2313;48.552;9.370;2023-12-20T04:37:04;5.50;99.90
4602;DHT22;2313;48.552;9.370;2023-12-20T04:39:29;5.50;99.90
4602;DHT22;2313;48.552;9.370;2023-12-20T04:41:55;5.50;99.90
4602;DHT22;2313;48.552;9.370;2023-12-20T04:44:21;5.50;99.90
4602;DHT22;2313;48.552;9.370;2023-12-20T04:46:46;5.50;99.90
4602;DHT22;2313;48.552;9.370;2023-12-20T04:49:12;5.50;99.90
4602;DHT22;2313;48.552;9.370;2023-12-20T04:51:37;5.50;99.90
4602;DHT22;2313;48.552;9.370;2023-12-20T04:54:03;5.60;99.90
4602;DHT22;2313;48.552;9.370;2023-12-20T04:56:29;5.50;99.90
4602;DHT22;2313;48.552;9.370;2023-12-20T04:58:54;5.40;99.90
4602;DHT22;2313;48.552;9.370;2023-12-20T05:01:20;5.50;99.90
4602;DHT22;2313;48.552;9.370;2023-12-20T05:03:46;5.40;99.90
4602;DHT22;2313;48.552;9.370;2023-12-20T05:06:12;5.40;99.90
4602;DHT22;2313;48.552;9.370;2023-12-20T05:08:38;5.40;99.90
4602;DHT22;2313;48.552;9.370;2023-12-20T05:11:04;5.40;99.90
4602;DHT22;2313;48.552;9.370;2023-12-20T05:13:29;5.30;99.90
4602;DHT22;2313;48.552;9.370;2023-12-20T05:15:55;5.40;99.90
4602;DHT22;2313;48.552;9.370;2023-12-20T05:18:21;5.40;99.90
4602;DHT22;2313;48.552;9.370;2023-12-20T05:20:49;5.40;99.90
4602;DHT22;2313;48.552;9.370;2023-12-20T05:23:15;5.50;99.90
4602;DHT22;2313;48.552;9.370;2023-12-20T05:25:40;5.40;99.90
4602;DHT22;2313;48.552;9.370;2023-12-20T05:28:06;5.40;99.90
4602;DHT22;2313;48.552;9.370;2023-12-20T05:30:31;5.40;99.90
4602;DHT22;2313;48.552;9.370;2023-12-20T05:32:57;5.40;99.90
4602;DHT22;2313;48.552;9.370;2023-12-20T05:35:23;5.40;99.90
4602;DHT22;2313;48.552;9.370;2023-12-20T05:37:49;5.40;99.90
4602;DHT22;2313;48.552;9.370;2023-12-20T05:40:15;5.40;99.90
4602;DHT22;2313;48.552;9.370;2023-12-20T05:42:40;5.40;99.90
4602;DHT22;2313;48.552;9.370;2023-12-20T05:45:06;5.30;99.90
4602;DHT22;2313;48.552;9.370;2023-12-20T05:47:32;5.40;99.90
4602;DHT22;2313;48.552;9.370;2023-12-20T05:49:57;5.30;99.90
4602;DHT22;2313;48.552;9.370;2023-12-20T05:52:23;5.40;99.90
4602;DHT22;2313;48.552;9.370;2023-12-20T05:54:49;5.40;99.90
4602;DHT22;2313;48.552;9.370;2023-12-20T05:57:14;5.30;99.90
4602;DHT22;2313;48.552;9.370;2023-12-20T05:59:40;5.30;99.90
4602;DHT22;2313;48.552;9.370;2023-12-20T06:02:06;5.20;99.90
4602;DHT22;2313;48.552;9.370;2023-12-20T06:04:32;5.20;99.90
4602;DHT22;2313;48.552;9.370;2023-12-20T06:06:58;5.20;99.90
4602;DHT22;2313;48.552;9.370;2023-12-20T06:09:23;5.20;99.90
4602;DHT22;2313;48.552;9.370;2023-12-20T06:11:49;5.10;99.90
4602;DHT22;2313;48.552;9.370;2023-12-20T06:14:15;5.20;99.90
4602;DHT22;2313;48.552;9.370;2023-12-20T06:16:41;5.20;99.90
4602;DHT22;2313;48.552;9.370;2023-12-20T06:19:07;5.20;99.90
4602;DHT22;2313;48.552;9.370;2023-12-20T06:21:32;5.20;99.90
4602;DHT22;2313;48.552;9.370;2023-12-20T06:24:01;5.20;99.90
4602;DHT22;2313;48.552;9.370;2023-12-20T06:26:26;5.20;99.90
4602;DHT22;2313;48.552;9.370;2023-12-20T06:28:52;5.20;99.90
4602;DHT22;2313;48.552;9.370;2023-12-20T06:31:17;5.20;99.90
4602;DHT22;2313;48.552;9.370;2023-12-20T06:33:43;5.20;99.90
4602;DHT22;2313;48.552;9.370;2023-12-20T06:36:13;5.20;99.90
4602;DHT22;2313;48.552;9.370;2023-12-20T06:38:39;5.10;99.90
4602;DHT22;2313;48.552;9.370;2023-12-20T06:41:05;5.10;99.90
4602;DHT22;2313;48.552;9.370;2023-12-20T06:43:31;5.10;99.90
4602;DHT22;2313;48.552;9.370;2023-12-20T06:45:58;5.10;99.90
4602;DHT22;2313;48.552;9.370;2023-12-20T06:48:23;5.10;99.90
4602;DHT22;2313;48.552;9.370;2023-12-20T06:50:49;5.20;99.90
4602;DHT22;2313;48.552;9.370;2023-12-20T06:53:14;5.10;99.90
4602;DHT22;2313;48.552;9.370;2023-12-20T06:55:40;5.20;99.90
4602;DHT22;2313;48.552;9.370;2023-12-20T06:58:06;5.20;99.90
4602;DHT22;2313;48.552;9.370;2023-12-20T07:00:32;5.10;99.90
4602;DHT22;2313;48.552;9.370;2023-12-20T07:02:58;5.10;99.90
4602;DHT22;2313;48.552;9.370;2023-12-20T07:05:24;5.20;99.90
4602;DHT22;2313;48.552;9.370;2023-12-20T07:07:50;5.20;99.90
4602;DHT22;2313;48.552;9.370;2023-12-20T07:10:16;5.20;99.90
4602;DHT22;2313;48.552;9.370;2023-12-20T07:12:42;5.20;99.90
4602;DHT22;2313;48.552;9.370;2023-12-20T07:15:07;5.20;99.90
4602;DHT22;2313;48.552;9.370;2023-12-20T07:17:34;5.30;99.90
4602;DHT22;2313;48.552;9.370;2023-12-20T07:20:00;5.30;99.90
4602;DHT22;2313;48.552;9.370;2023-12-20T07:22:29;5.30;99.90
4602;DHT22;2313;48.552;9.370;2023-12-20T07:24:57;5.40;99.90
4602;DHT22;2313;48.552;9.370;2023-12-20T07:27:23;5.40;99.90
4602;DHT22;2313;48.552;9.370;2023-12-20T07:29:48;5.40;99.90
4602;DHT22;2313;48.552;9.370;2023-12-20T07:32:14;5.40;99.90
4602;DHT22;2313;48.552;9.370;2023-12-20T07:34:39;5.40;99.90
4602;DHT22;2313;48.552;9.370;2023-12-20T07:37:05;5.40;99.90
4602;DHT22;2313;48.552;9.370;2023-12-20T07:39:31;5.50;99.90
4602;DHT22;2313;48.552;9.370;2023-12-20T07:41:56;5.50;99.90
4602;DHT22;2313;48.552;9.370;2023-12-20T07:44:22;5.50;99.90
4602;DHT22;2313;48.552;9.370;2023-12-20T07:46:47;5.50;99.90
4602;DHT22;2313;48.552;9.370;2023-12-20T07:49:14;5.50;99.90
4602;DHT22;2313;48.552;9.370;2023-12-20T07:51:39;5.60;99.90
4602;DHT22;2313;48.552;9.370;2023-12-20T07:54:05;5.60;99.90
4602;DHT22;2313;48.552;9.370;2023-12-20T07:56:30;5.60;99.90
4602;DHT22;2313;48.552;9.370;2023-12-20T07:58:56;5.60;99.90
4602;DHT22;2313;48.552;9.370;2023-12-20T08:01:22;5.60;99.90
4602;DHT22;2313;48.552;9.370;2023-12-20T08:03:49;5.60;99.90
4602;DHT22;2313;48.552;9.370;2023-12-20T08:06:15;5.60;99.90
4602;DHT22;2313;48.552;9.370;2023-12-20T08:08:42;5.70;99.90
4602;DHT22;2313;48.552;9.370;2023-12-20T08:11:08;5.70;99.90
4602;DHT22;2313;48.552;9.370;2023-12-20T08:13:33;5.70;99.90
4602;DHT22;2313;48.552;9.370;2023-12-20T08:15:59;5.70;99.90
4602;DHT22;2313;48.552;9.370;2023-12-20T08:18:25;5.70;99.90
4602;DHT22;2313;48.552;9.370;2023-12-20T08:20:50;5.70;99.90
4602;DHT22;2313;48.552;9.370;2023-12-20T08:23:19;5.80;99.90
4602;DHT22;2313;48.552;9.370;2023-12-20T08:25:46;5.80;99.90
4602;DHT22;2313;48.552;9.370;2023-12-20T08:28:12;5.70;99.90
4602;DHT22;2313;48.552;9.370;2023-12-20T08:30:38;5.80;99.90
4602;DHT22;2313;48.552;9.370;2023-12-20T08:33:04;5.80;99.90
4602;DHT22;2313;48.552;9.370;2023-12-20T08:35:30;5.80;99.90
4602;DHT22;2313;48.552;9.370;2023-12-20T08:37:56;5.70;99.90
4602;DHT22;2313;48.552;9.370;2023-12-20T08:40:22;5.70;99.90
4602;DHT22;2313;48.552;9.370;2023-12-20T08:42:47;5.70;99.90
4602;DHT22;2313;48.552;9.370;2023-12-20T08:45:13;5.80;99.90
4602;DHT22;2313;48.552;9.370;2023-12-20T08:47:38;5.80;99.90
4602;DHT22;2313;48.552;9.370;2023-12-20T08:50:06;5.80;99.90
4602;DHT22;2313;48.552;9.370;2023-12-20T08:52:32;5.80;99.90
4602;DHT22;2313;48.552;9.370;2023-12-20T08:54:58;5.90;99.90
4602;DHT22;2313;48.552;9.370;2023-12-20T08:57:24;5.80;99.90
4602;DHT22;2313;48.552;9.370;2023-12-20T08:59:50;5.80;99.90
4602;DHT22;2313;48.552;9.370;2023-12-20T09:02:16;5.80;99.90
4602;DHT22;2313;48.552;9.370;2023-12-20T09:04:42;5.80;99.90
4602;DHT22;2313;48.552;9.370;2023-12-20T09:07:24;5.80;99.90
4602;DHT22;2313;48.552;9.370;2023-12-20T09:09:51;5.90;99.90
4602;DHT22;2313;48.552;9.370;2023-12-20T09:12:20;6.00;99.90
4602;DHT22;2313;48.552;9.370;2023-12-20T09:14:46;6.00;99.90
4602;DHT22;2313;48.552;9.370;2023-12-20T09:17:12;6.00;99.90
4602;DHT22;2313;48.552;9.370;2023-12-20T09:19:38;6.00;99.90
4602;DHT22;2313;48.552;9.370;2023-12-20T09:22:05;6.00;99.90
4602;DHT22;2313;48.552;9.370;2023-12-20T09:24:31;6.00;99.90
4602;DHT22;2313;48.552;9.370;2023-12-20T09:26:56;6.00;99.90
4602;DHT22;2313;48.552;9.370;2023-12-20T09:29:22;6.00;99.90
4602;DHT22;2313;48.552;9.370;2023-12-20T09:31:48;5.90;99.90
4602;DHT22;2313;48.552;9.370;2023-12-20T09:34:15;5.80;99.90
4602;DHT22;2313;48.552;9.370;2023-12-20T09:36:41;5.80;99.90
4602;DHT22;2313;48.552;9.370;2023-12-20T09:39:13;5.70;99.90
4602;DHT22;2313;48.552;9.370;2023-12-20T09:41:43;5.60;99.90
4602;DHT22;2313;48.552;9.370;2023-12-20T09:44:14;5.60;99.90
4602;DHT22;2313;48.552;9.370;2023-12-20T09:46:43;5.60;99.90
4602;DHT22;2313;48.552;9.370;2023-12-20T09:49:10;5.60;99.90
4602;DHT22;2313;48.552;9.370;2023-12-20T09:51:36;5.60;99.90
4602;DHT22;2313;48.552;9.370;2023-12-20T09:54:03;5.50;99.90
4602;DHT22;2313;48.552;9.370;2023-12-20T09:56:29;5.50;99.90
4602;DHT22;2313;48.552;9.370;2023-12-20T09:58:55;5.40;99.90
4602;DHT22;2313;48.552;9.370;2023-12-20T10:01:21;5.40;99.90
4602;DHT22;2313;48.552;9.370;2023-12-20T10:03:47;5.30;99.90
4602;DHT22;2313;48.552;9.370;2023-12-20T10:06:13;5.40;99.90
4602;DHT22;2313;48.552;9.370;2023-12-20T10:08:39;5.30;99.90
4602;DHT22;2313;48.552;9.370;2023-12-20T10:11:05;5.20;99.90
4602;DHT22;2313;48.552;9.370;2023-12-20T10:13:31;5.30;99.90
4602;DHT22;2313;48.552;9.370;2023-12-20T10:15:56;5.30;99.90
4602;DHT22;2313;48.552;9.370;2023-12-20T10:18:22;5.30;99.90
4602;DHT22;2313;48.552;9.370;2023-12-20T10:20:48;5.30;99.90
4602;DHT22;2313;48.552;9.370;2023-12-20T10:23:15;5.20;99.90
4602;DHT22;2313;48.552;9.370;2023-12-20T10:25:41;5.30;99.90
4602;DHT22;2313;48.552;9.370;2023-12-20T10:28:14;5.30;99.90
4602;DHT22;2313;48.552;9.370;2023-12-20T10:30:44;5.30;99.90
4602;DHT22;2313;48.552;9.370;2023-12-20T10:33:10;5.30;99.90
4602;DHT22;2313;48.552;9.370;2023-12-20T10:35:37;5.40;99.90
4602;DHT22;2313;48.552;9.370;2023-12-20T10:38:05;5.40;99.90
4602;DHT22;2313;48.552;9.370;2023-12-20T10:40:33;5.50;99.90
4602;DHT22;2313;48.552;9.370;2023-12-20T10:42:59;5.60;99.90
4602;DHT22;2313;48.552;9.370;2023-12-20T10:45:26;5.60;99.90
4602;DHT22;2313;48.552;9.370;2023-12-20T10:47:52;5.70;99.90
4602;DHT22;2313;48.552;9.370;2023-12-20T10:50:19;5.70;99.90
4602;DHT22;2313;48.552;9.370;2023-12-20T10:52:47;5.70;99.90
4602;DHT22;2313;48.552;9.370;2023-12-20T10:55:13;5.80;99.90
4602;DHT22;2313;48.552;9.370;2023-12-20T10:57:39;5.70;99.90
4602;DHT22;2313;48.552;9.370;2023-12-20T11:00:10;5.70;99.90
4602;DHT22;2313;48.552;9.370;2023-12-20T11:02:40;5.70;99.90
4602;DHT22;2313;48.552;9.370;2023-12-20T11:05:36;5.80;99.90
4602;DHT22;2313;48.552;9.370;2023-12-20T11:08:14;5.70;99.90
4602;DHT22;2313;48.552;9.370;2023-12-20T11:11:13;5.80;99.90
4602;DHT22;2313;48.552;9.370;2023-12-20T11:14:13;5.80;99.90
4602;DHT22;2313;48.552;9.370;2023-12-20T11:16:41;5.70;99.90
4602;DHT22;2313;48.552;9.370;2023-12-20T11:19:07;5.70;99.90
4602;DHT22;2313;48.552;9.370;2023-12-20T11:21:33;5.70;99.90
4602;DHT22;2313;48.552;9.370;2023-12-20T11:24:00;5.70;99.90
4602;DHT22;2313;48.552;9.370;2023-12-20T11:26:29;5.80;99.90
4602;DHT22;2313;48.552;9.370;2023-12-20T11:31:54;5.80;99.90
4602;DHT22;2313;48.552;9.370;2023-12-20T11:34:20;5.80;99.90
4602;DHT22;2313;48.552;9.370;2023-12-20T11:36:45;5.80;99.90
4602;DHT22;2313;48.552;9.370;2023-12-20T11:39:11;5.90;99.90
4602;DHT22;2313;48.552;9.370;2023-12-20T11:41:38;5.90;99.90
4602;DHT22;2313;48.552;9.370;2023-12-20T11:44:04;5.90;99.90
4602;DHT22;2313;48.552;9.370;2023-12-20T11:46:31;5.90;99.90
4602;DHT22;2313;48.552;9.370;2023-12-20T11:48:57;5.90;99.90
4602;DHT22;2313;48.552;9.370;2023-12-20T11:51:22;5.90;99.90
4602;DHT22;2313;48.552;9.370;2023-12-20T11:53:51;5.80;99.90
4602;DHT22;2313;48.552;9.370;2023-12-20T11:56:18;5.90;99.90
4602;DHT22;2313;48.552;9.370;2023-12-20T11:58:44;5.90;99.90
4602;DHT22;2313;48.552;9.370;2023-12-20T12:01:10;5.90;99.90
4602;DHT22;2313;48.552;9.370;2023-12-20T12:03:36;5.90;99.90
4602;DHT22;2313;48.552;9.370;2023-12-20T12:06:02;5.90;99.90
4602;DHT22;2313;48.552;9.370;2023-12-20T12:08:29;5.90;99.90
4602;DHT22;2313;48.552;9.370;2023-12-20T12:10:55;5.90;99.90
4602;DHT22;2313;48.552;9.370;2023-12-20T12:13:21;5.80;99.90
4602;DHT22;2313;48.552;9.370;2023-12-20T12:15:48;5.60;99.90
4602;DHT22;2313;48.552;9.370;2023-12-20T12:18:17;5.60;99.90
4602;DHT22;2313;48.552;9.370;2023-12-20T12:20:43;5.60;99.90
4602;DHT22;2313;48.552;9.370;2023-12-20T12:23:08;5.60;99.90
4602;DHT22;2313;48.552;9.370;2023-12-20T12:25:37;5.60;99.90
4602;DHT22;2313;48.552;9.370;2023-12-20T12:28:03;5.60;99.90
4602;DHT22;2313;48.552;9.370;2023-12-20T12:30:29;5.60;99.90
4602;DHT22;2313;48.552;9.370;2023-12-20T12:32:56;5.50;99.90
4602;DHT22;2313;48.552;9.370;2023-12-20T12:35:22;5.50;99.90
4602;DHT22;2313;48.552;9.370;2023-12-20T12:37:47;5.50;99.90
4602;DHT22;2313;48.552;9.370;2023-12-20T12:40:15;5.50;99.90
4602;DHT22;2313;48.552;9.370;2023-12-20T12:42:42;5.50;99.90
4602;DHT22;2313;48.552;9.370;2023-12-20T12:45:09;5.50;99.90
4602;DHT22;2313;48.552;9.370;2023-12-20T12:47:35;5.50;99.90
4602;DHT22;2313;48.552;9.370;2023-12-20T12:50:01;5.50;99.90
4602;DHT22;2313;48.552;9.370;2023-12-20T12:52:26;5.50;99.90
4602;DHT22;2313;48.552;9.370;2023-12-20T12:54:53;5.50;99.90
4602;DHT22;2313;48.552;9.370;2023-12-20T12:57:19;5.40;99.90
4602;DHT22;2313;48.552;9.370;2023-12-20T12:59:45;5.40;99.90
4602;DHT22;2313;48.552;9.370;2023-12-20T13:02:15;5.40;99.90
4602;DHT22;2313;48.552;9.370;2023-12-20T13:04:41;5.40;99.90
4602;DHT22;2313;48.552;9.370;2023-12-20T13:07:07;5.40;99.90
4602;DHT22;2313;48.552;9.370;2023-12-20T13:09:36;5.40;99.90
4602;DHT22;2313;48.552;9.370;2023-12-20T13:12:01;5.40;99.90
4602;DHT22;2313;48.552;9.370;2023-12-20T13:14:31;5.40;99.90
4602;DHT22;2313;48.552;9.370;2023-12-20T13:16:58;5.40;99.90
4602;DHT22;2313;48.552;9.370;2023-12-20T13:19:23;5.40;99.90
4602;DHT22;2313;48.552;9.370;2023-12-20T13:21:49;5.30;99.90
4602;DHT22;2313;48.552;9.370;2023-12-20T13:24:15;5.40;99.90
4602;DHT22;2313;48.552;9.370;2023-12-20T13:26:40;5.30;99.90
4602;DHT22;2313;48.552;9.370;2023-12-20T13:29:06;5.40;99.90
4602;DHT22;2313;48.552;9.370;2023-12-20T13:31:31;5.40;99.90
4602;DHT22;2313;48.552;9.370;2023-12-20T13:33:57;5.40;99.90
4602;DHT22;2313;48.552;9.370;2023-12-20T13:36:22;5.40;99.90
4602;DHT22;2313;48.552;9.370;2023-12-20T13:38:48;5.40;99.90
4602;DHT22;2313;48.552;9.370;2023-12-20T13:41:14;5.40;99.90
4602;DHT22;2313;48.552;9.370;2023-12-20T13:43:39;5.40;99.90
4602;DHT22;2313;48.552;9.370;2023-12-20T13:46:05;5.40;99.90
4602;DHT22;2313;48.552;9.370;2023-12-20T13:48:31;5.50;99.90
4602;DHT22;2313;48.552;9.370;2023-12-20T13:50:56;5.50;99.90
4602;DHT22;2313;48.552;9.370;2023-12-20T13:53:22;5.50;99.90
4602;DHT22;2313;48.552;9.370;2023-12-20T13:55:47;5.50;99.90
4602;DHT22;2313;48.552;9.370;2023-12-20T13:58:13;5.60;99.90
4602;DHT22;2313;48.552;9.370;2023-12-20T14:00:40;5.60;99.90
4602;DHT22;2313;48.552;9.370;2023-12-20T14:03:05;5.50;99.90
4602;DHT22;2313;48.552;9.370;2023-12-20T14:05:31;5.50;99.90
4602;DHT22;2313;48.552;9.370;2023-12-20T14:07:57;5.50;99.90
4602;DHT22;2313;48.552;9.370;2023-12-20T14:10:23;5.50;99.90
4602;DHT22;2313;48.552;9.370;2023-12-20T14:12:49;5.50;99.90
4602;DHT22;2313;48.552;9.370;2023-12-20T14:15:14;5.50;99.90
4602;DHT22;2313;48.552;9.370;2023-12-20T14:17:40;5.50;99.90
4602;DHT22;2313;48.552;9.370;2023-12-20T14:20:09;5.50;99.90
4602;DHT22;2313;48.552;9.370;2023-12-20T14:22:36;5.50;99.90
4602;DHT22;2313;48.552;9.370;2023-12-20T14:25:04;5.50;99.90
4602;DHT22;2313;48.552;9.370;2023-12-20T14:27:30;5.50;99.90
4602;DHT22;2313;48.552;9.370;2023-12-20T14:29:55;5.50;99.90
4602;DHT22;2313;48.552;9.370;2023-12-20T14:32:21;5.50;99.90
4602;DHT22;2313;48.552;9.370;2023-12-20T14:34:47;5.40;99.90
4602;DHT22;2313;48.552;9.370;2023-12-20T14:37:13;5.40;99.90
4602;DHT22;2313;48.552;9.370;2023-12-20T14:39:39;5.50;99.90
4602;DHT22;2313;48.552;9.370;2023-12-20T14:42:10;5.50;99.90
4602;DHT22;2313;48.552;9.370;2023-12-20T14:44:42;5.50;99.90
4602;DHT22;2313;48.552;9.370;2023-12-20T14:47:08;5.50;99.90
4602;DHT22;2313;48.552;9.370;2023-12-20T14:49:34;5.50;99.90
4602;DHT22;2313;48.552;9.370;2023-12-20T14:52:01;5.60;99.90
4602;DHT22;2313;48.552;9.370;2023-12-20T14:54:27;5.60;99.90
4602;DHT22;2313;48.552;9.370;2023-12-20T14:56:53;5.60;99.90
4602;DHT22;2313;48.552;9.370;2023-12-20T14:59:18;5.50;99.90
4602;DHT22;2313;48.552;9.370;2023-12-20T15:01:44;5.40;99.90
4602;DHT22;2313;48.552;9.370;2023-12-20T15:04:10;5.40;99.90
4602;DHT22;2313;48.552;9.370;2023-12-20T15:06:36;5.40;99.90
4602;DHT22;2313;48.552;9.370;2023-12-20T15:09:02;5.40;99.90
4602;DHT22;2313;48.552;9.370;2023-12-20T15:11:30;5.30;99.90
4602;DHT22;2313;48.552;9.370;2023-12-20T15:13:56;5.40;99.90
4602;DHT22;2313;48.552;9.370;2023-12-20T15:16:23;5.30;99.90
4602;DHT22;2313;48.552;9.370;2023-12-20T15:18:49;5.20;99.90
4602;DHT22;2313;48.552;9.370;2023-12-20T15:21:15;5.20;99.90
4602;DHT22;2313;48.552;9.370;2023-12-20T15:23:40;5.20;99.90
4602;DHT22;2313;48.552;9.370;2023-12-20T15:26:17;5.20;99.90
4602;DHT22;2313;48.552;9.370;2023-12-20T15:28:42;5.10;99.90
4602;DHT22;2313;48.552;9.370;2023-12-20T15:31:09;5.10;99.90
4602;DHT22;2313;48.552;9.370;2023-12-20T15:33:34;5.10;99.90
4602;DHT22;2313;48.552;9.370;2023-12-20T15:36:00;5.10;99.90
4602;DHT22;2313;48.552;9.370;2023-12-20T15:38:25;5.10;99.90
4602;DHT22;2313;48.552;9.370;2023-12-20T15:40:51;5.10;99.90
4602;DHT22;2313;48.552;9.370;2023-12-20T15:43:16;5.00;99.90
4602;DHT22;2313;48.552;9.370;2023-12-20T15:45:42;5.00;99.90
4602;DHT22;2313;48.552;9.370;2023-12-20T15:48:08;5.00;99.90
4602;DHT22;2313;48.552;9.370;2023-12-20T15:50:36;5.00;99.90
4602;DHT22;2313;48.552;9.370;2023-12-20T15:53:02;5.00;99.90
4602;DHT22;2313;48.552;9.370;2023-12-20T15:55:28;5.00;99.90
4602;DHT22;2313;48.552;9.370;2023-12-20T15:57:54;4.90;99.90
4602;DHT22;2313;48.552;9.370;2023-12-20T16:00:20;4.90;99.90
4602;DHT22;2313;48.552;9.370;2023-12-20T16:02:45;4.90;99.90
4602;DHT22;2313;48.552;9.370;2023-12-20T16:05:11;4.90;99.90
4602;DHT22;2313;48.552;9.370;2023-12-20T16:07:36;4.90;99.90
4602;DHT22;2313;48.552;9.370;2023-12-20T16:10:02;4.90;99.90
4602;DHT22;2313;48.552;9.370;2023-12-20T16:12:29;4.90;99.90
4602;DHT22;2313;48.552;9.370;2023-12-20T16:14:54;4.90;99.90